sensor_id;sensor_type;location;lat;lon;timestamp;P1;durP1;ratioP1;P2;durP2;ratioP2
23678;SDS011;12016;51.668;6.874;2022-08-19T00:05:17;5.50;;;4.95;;
23678;SDS011;12016;51.668;6.874;2022-08-19T00:11:21;5.30;;;4.80;;
23678;SDS011;12016;51.668;6.874;2022-08-19T00:17:24;6.72;;;5.07;;
23678;SDS011;12016;51.668;6.874;2022-08-19T00:23:26;5.78;;;4.97;;
23678;SDS011;12016;51.668;6.874;2022-08-19T00:29:28;5.78;;;4.68;;
23678;SDS011;12016;51.668;6.874;2022-08-19T00:35:30;5.38;;;4.88;;
23678;SDS011;12016;51.668;6.874;2022-08-19T00:41:32;5.75;;;5.25;;
23678;SDS011;12016;51.668;6.874;2022-08-19T00:47:35;5.22;;;4.72;;
23678;SDS011;12016;51.668;6.874;2022-08-19T00:53:37;4.95;;;4.55;;
23678;SDS011;12016;51.668;6.874;2022-08-19T00:59:38;5.55;;;5.05;;
23678;SDS011;12016;51.668;6.874;2022-08-19T01:05:43;5.75;;;5.25;;
23678;SDS011;12016;51.668;6.874;2022-08-19T01:11:47;5.32;;;4.82;;
23678;SDS011;12016;51.668;6.874;2022-08-19T01:17:49;6.60;;;4.93;;
23678;SDS011;12016;51.668;6.874;2022-08-19T01:23:52;5.88;;;5.22;;
23678;SDS011;12016;51.668;6.874;2022-08-19T01:29:54;6.03;;;4.43;;
23678;SDS011;12016;51.668;6.874;2022-08-19T01:36:11;6.30;;;5.25;;
23678;SDS011;12016;51.668;6.874;2022-08-19T01:42:15;5.50;;;5.00;;
23678;SDS011;12016;51.668;6.874;2022-08-19T01:48:17;6.05;;;5.10;;
23678;SDS011;12016;51.668;6.874;2022-08-19T01:54:19;7.70;;;5.30;;
23678;SDS011;12016;51.668;6.874;2022-08-19T02:00:24;5.13;;;4.28;;
23678;SDS011;12016;51.668;6.874;2022-08-19T02:06:28;5.47;;;4.97;;
23678;SDS011;12016;51.668;6.874;2022-08-19T02:12:31;6.03;;;4.80;;
23678;SDS011;12016;51.668;6.874;2022-08-19T02:18:33;7.78;;;4.85;;
23678;SDS011;12016;51.668;6.874;2022-08-19T02:24:35;5.57;;;4.97;;
23678;SDS011;12016;51.668;6.874;2022-08-19T02:30:38;4.93;;;4.53;;
23678;SDS011;12016;51.668;6.874;2022-08-19T02:36:42;6.15;;;5.53;;
23678;SDS011;12016;51.668;6.874;2022-08-19T02:42:45;5.57;;;5.03;;
23678;SDS011;12016;51.668;6.874;2022-08-19T02:48:51;5.13;;;4.63;;
23678;SDS011;12016;51.668;6.874;2022-08-19T02:54:54;4.53;;;4.13;;
23678;SDS011;12016;51.668;6.874;2022-08-19T03:00:59;5.28;;;4.78;;
23678;SDS011;12016;51.668;6.874;2022-08-19T03:07:00;4.88;;;4.30;;
23678;SDS011;12016;51.668;6.874;2022-08-19T03:13:02;4.78;;;4.38;;
23678;SDS011;12016;51.668;6.874;2022-08-19T03:19:04;5.35;;;4.85;;
23678;SDS011;12016;51.668;6.874;2022-08-19T03:25:06;5.68;;;5.13;;
23678;SDS011;12016;51.668;6.874;2022-08-19T03:31:12;5.85;;;5.35;;
23678;SDS011;12016;51.668;6.874;2022-08-19T03:37:15;5.60;;;5.10;;
23678;SDS011;12016;51.668;6.874;2022-08-19T03:43:17;5.95;;;5.38;;
23678;SDS011;12016;51.668;6.874;2022-08-19T03:49:21;6.93;;;5.57;;
23678;SDS011;12016;51.668;6.874;2022-08-19T03:55:25;4.72;;;4.32;;
23678;SDS011;12016;51.668;6.874;2022-08-19T04:01:28;4.93;;;4.50;;
23678;SDS011;12016;51.668;6.874;2022-08-19T04:07:30;5.00;;;4.50;;
23678;SDS011;12016;51.668;6.874;2022-08-19T04:13:32;4.63;;;4.22;;
23678;SDS011;12016;51.668;6.874;2022-08-19T04:19:35;4.32;;;3.92;;
23678;SDS011;12016;51.668;6.874;2022-08-19T04:25:39;5.47;;;4.63;;
23678;SDS011;12016;51.668;6.874;2022-08-19T04:31:43;4.50;;;4.10;;
23678;SDS011;12016;51.668;6.874;2022-08-19T04:37:46;4.90;;;4.40;;
23678;SDS011;12016;51.668;6.874;2022-08-19T04:43:48;5.38;;;4.88;;
23678;SDS011;12016;51.668;6.874;2022-08-19T04:49:52;5.22;;;4.78;;
23678;SDS011;12016;51.668;6.874;2022-08-19T04:55:54;5.53;;;5.03;;
23678;SDS011;12016;51.668;6.874;2022-08-19T05:01:59;7.88;;;5.10;;
23678;SDS011;12016;51.668;6.874;2022-08-19T05:08:01;5.40;;;4.90;;
23678;SDS011;12016;51.668;6.874;2022-08-19T05:14:03;6.00;;;5.45;;
23678;SDS011;12016;51.668;6.874;2022-08-19T05:20:06;5.47;;;4.97;;
23678;SDS011;12016;51.668;6.874;2022-08-19T05:26:27;5.88;;;5.30;;
23678;SDS011;12016;51.668;6.874;2022-08-19T05:32:30;6.18;;;5.50;;
23678;SDS011;12016;51.668;6.874;2022-08-19T05:38:33;7.60;;;6.38;;
23678;SDS011;12016;51.668;6.874;2022-08-19T05:44:38;7.72;;;6.28;;
23678;SDS011;12016;51.668;6.874;2022-08-19T05:50:44;7.00;;;6.30;;
23678;SDS011;12016;51.668;6.874;2022-08-19T05:56:47;8.25;;;6.85;;
23678;SDS011;12016;51.668;6.874;2022-08-19T06:02:49;7.75;;;7.05;;
23678;SDS011;12016;51.668;6.874;2022-08-19T06:08:52;8.20;;;7.40;;
23678;SDS011;12016;51.668;6.874;2022-08-19T06:14:54;7.90;;;7.20;;
23678;SDS011;12016;51.668;6.874;2022-08-19T06:20:56;10.45;;;8.90;;
23678;SDS011;12016;51.668;6.874;2022-08-19T06:26:59;8.93;;;7.53;;
23678;SDS011;12016;51.668;6.874;2022-08-19T06:33:02;9.75;;;8.85;;
23678;SDS011;12016;51.668;6.874;2022-08-19T06:39:05;10.00;;;9.00;;
23678;SDS011;12016;51.668;6.874;2022-08-19T06:45:10;15.35;;;11.20;;
23678;SDS011;12016;51.668;6.874;2022-08-19T06:51:13;14.23;;;11.20;;
23678;SDS011;12016;51.668;6.874;2022-08-19T06:57:17;15.23;;;11.40;;
23678;SDS011;12016;51.668;6.874;2022-08-19T07:03:19;13.55;;;11.25;;
23678;SDS011;12016;51.668;6.874;2022-08-19T07:09:22;13.00;;;11.63;;
23678;SDS011;12016;51.668;6.874;2022-08-19T07:15:24;15.13;;;13.63;;
23678;SDS011;12016;51.668;6.874;2022-08-19T07:21:27;12.93;;;11.63;;
23678;SDS011;12016;51.668;6.874;2022-08-19T07:27:30;17.08;;;13.93;;
23678;SDS011;12016;51.668;6.874;2022-08-19T07:33:32;13.93;;;12.57;;
23678;SDS011;12016;51.668;6.874;2022-08-19T07:39:37;14.30;;;12.90;;
23678;SDS011;12016;51.668;6.874;2022-08-19T07:45:40;16.02;;;12.32;;
23678;SDS011;12016;51.668;6.874;2022-08-19T07:51:45;13.73;;;12.20;;
23678;SDS011;12016;51.668;6.874;2022-08-19T07:57:49;15.82;;;14.23;;
23678;SDS011;12016;51.668;6.874;2022-08-19T08:03:51;16.27;;;14.57;;
23678;SDS011;12016;51.668;6.874;2022-08-19T08:10:13;16.50;;;13.82;;
23678;SDS011;12016;51.668;6.874;2022-08-19T08:16:15;16.98;;;15.15;;
23678;SDS011;12016;51.668;6.874;2022-08-19T08:22:18;13.27;;;11.88;;
23678;SDS011;12016;51.668;6.874;2022-08-19T08:28:44;17.15;;;13.27;;
23678;SDS011;12016;51.668;6.874;2022-08-19T08:34:49;15.07;;;13.35;;
23678;SDS011;12016;51.668;6.874;2022-08-19T08:40:53;13.60;;;11.93;;
23678;SDS011;12016;51.668;6.874;2022-08-19T08:47:09;12.77;;;11.00;;
23678;SDS011;12016;51.668;6.874;2022-08-19T08:53:17;15.07;;;12.52;;
23678;SDS011;12016;51.668;6.874;2022-08-19T09:05:46;18.23;;;12.38;;
23678;SDS011;12016;51.668;6.874;2022-08-19T09:11:54;11.60;;;10.40;;
23678;SDS011;12016;51.668;6.874;2022-08-19T09:18:04;12.05;;;10.48;;
23678;SDS011;12016;51.668;6.874;2022-08-19T09:24:07;10.27;;;9.25;;
23678;SDS011;12016;51.668;6.874;2022-08-19T09:30:12;11.80;;;10.60;;
23678;SDS011;12016;51.668;6.874;2022-08-19T09:36:18;10.57;;;9.48;;
23678;SDS011;12016;51.668;6.874;2022-08-19T09:42:22;9.82;;;8.25;;
23678;SDS011;12016;51.668;6.874;2022-08-19T09:48:24;11.77;;;10.27;;
23678;SDS011;12016;51.668;6.874;2022-08-19T09:54:26;14.23;;;12.15;;
23678;SDS011;12016;51.668;6.874;2022-08-19T10:00:28;11.77;;;10.65;;
23678;SDS011;12016;51.668;6.874;2022-08-19T10:06:31;13.48;;;12.07;;
23678;SDS011;12016;51.668;6.874;2022-08-19T10:12:35;11.90;;;10.70;;
23678;SDS011;12016;51.668;6.874;2022-08-19T10:18:38;11.73;;;10.57;;
23678;SDS011;12016;51.668;6.874;2022-08-19T10:24:43;12.15;;;10.88;;
23678;SDS011;12016;51.668;6.874;2022-08-19T10:30:47;13.93;;;12.52;;
23678;SDS011;12016;51.668;6.874;2022-08-19T10:36:49;13.38;;;11.02;;
23678;SDS011;12016;51.668;6.874;2022-08-19T10:42:51;13.98;;;12.52;;
23678;SDS011;12016;51.668;6.874;2022-08-19T10:48:54;12.02;;;10.73;;
23678;SDS011;12016;51.668;6.874;2022-08-19T10:54:56;16.50;;;13.15;;
23678;SDS011;12016;51.668;6.874;2022-08-19T11:01:19;12.82;;;10.25;;
23678;SDS011;12016;51.668;6.874;2022-08-19T11:07:22;13.65;;;11.38;;
23678;SDS011;12016;51.668;6.874;2022-08-19T11:13:27;15.48;;;13.88;;
23678;SDS011;12016;51.668;6.874;2022-08-19T11:19:30;12.73;;;11.30;;
23678;SDS011;12016;51.668;6.874;2022-08-19T11:25:33;10.70;;;9.60;;
23678;SDS011;12016;51.668;6.874;2022-08-19T11:31:37;7.93;;;7.13;;
23678;SDS011;12016;51.668;6.874;2022-08-19T11:37:40;7.35;;;6.50;;
23678;SDS011;12016;51.668;6.874;2022-08-19T11:43:43;6.22;;;4.57;;
23678;SDS011;12016;51.668;6.874;2022-08-19T11:49:46;6.55;;;4.45;;
23678;SDS011;12016;51.668;6.874;2022-08-19T11:55:49;5.15;;;3.53;;
23678;SDS011;12016;51.668;6.874;2022-08-19T12:01:51;5.20;;;3.80;;
23678;SDS011;12016;51.668;6.874;2022-08-19T12:07:53;4.68;;;2.70;;
23678;SDS011;12016;51.668;6.874;2022-08-19T12:13:56;2.33;;;2.10;;
23678;SDS011;12016;51.668;6.874;2022-08-19T12:19:58;4.30;;;2.63;;
23678;SDS011;12016;51.668;6.874;2022-08-19T12:26:00;3.17;;;2.30;;
23678;SDS011;12016;51.668;6.874;2022-08-19T12:32:02;2.33;;;1.83;;
23678;SDS011;12016;51.668;6.874;2022-08-19T12:38:05;2.30;;;1.67;;
23678;SDS011;12016;51.668;6.874;2022-08-19T12:44:10;3.53;;;1.30;;
23678;SDS011;12016;51.668;6.874;2022-08-19T12:50:14;2.17;;;1.83;;
23678;SDS011;12016;51.668;6.874;2022-08-19T12:56:16;2.13;;;1.30;;
23678;SDS011;12016;51.668;6.874;2022-08-19T13:02:21;2.40;;;1.50;;
23678;SDS011;12016;51.668;6.874;2022-08-19T13:08:24;1.93;;;1.43;;
23678;SDS011;12016;51.668;6.874;2022-08-19T13:14:26;3.35;;;1.33;;
23678;SDS011;12016;51.668;6.874;2022-08-19T13:20:28;1.33;;;1.20;;
23678;SDS011;12016;51.668;6.874;2022-08-19T13:26:31;4.53;;;1.60;;
23678;SDS011;12016;51.668;6.874;2022-08-19T13:32:33;2.22;;;1.77;;
23678;SDS011;12016;51.668;6.874;2022-08-19T13:38:54;1.88;;;1.70;;
23678;SDS011;12016;51.668;6.874;2022-08-19T13:44:56;1.80;;;1.70;;
23678;SDS011;12016;51.668;6.874;2022-08-19T13:51:00;3.28;;;2.70;;
23678;SDS011;12016;51.668;6.874;2022-08-19T13:57:02;3.17;;;2.85;;
23678;SDS011;12016;51.668;6.874;2022-08-19T14:03:04;5.75;;;4.20;;
23678;SDS011;12016;51.668;6.874;2022-08-19T14:09:09;15.48;;;5.82;;
23678;SDS011;12016;51.668;6.874;2022-08-19T14:15:11;6.72;;;5.13;;
23678;SDS011;12016;51.668;6.874;2022-08-19T14:21:16;5.88;;;5.03;;
23678;SDS011;12016;51.668;6.874;2022-08-19T14:27:21;5.82;;;4.30;;
23678;SDS011;12016;51.668;6.874;2022-08-19T14:33:25;4.35;;;3.95;;
23678;SDS011;12016;51.668;6.874;2022-08-19T14:39:27;5.78;;;4.40;;
23678;SDS011;12016;51.668;6.874;2022-08-19T14:45:29;5.72;;;5.03;;
23678;SDS011;12016;51.668;6.874;2022-08-19T14:51:34;5.35;;;4.40;;
23678;SDS011;12016;51.668;6.874;2022-08-19T14:57:36;5.68;;;4.97;;
23678;SDS011;12016;51.668;6.874;2022-08-19T15:03:38;4.90;;;4.50;;
23678;SDS011;12016;51.668;6.874;2022-08-19T15:09:42;4.90;;;4.20;;
23678;SDS011;12016;51.668;6.874;2022-08-19T15:15:44;6.03;;;5.07;;
23678;SDS011;12016;51.668;6.874;2022-08-19T15:21:46;7.65;;;5.60;;
23678;SDS011;12016;51.668;6.874;2022-08-19T15:27:48;5.43;;;4.38;;
23678;SDS011;12016;51.668;6.874;2022-08-19T15:33:51;4.07;;;3.67;;
23678;SDS011;12016;51.668;6.874;2022-08-19T15:39:53;6.53;;;4.90;;
23678;SDS011;12016;51.668;6.874;2022-08-19T15:45:56;5.10;;;4.40;;
23678;SDS011;12016;51.668;6.874;2022-08-19T15:51:58;4.93;;;3.85;;
23678;SDS011;12016;51.668;6.874;2022-08-19T15:58:03;8.30;;;4.53;;
23678;SDS011;12016;51.668;6.874;2022-08-19T16:04:25;6.82;;;4.65;;
23678;SDS011;12016;51.668;6.874;2022-08-19T16:10:46;4.82;;;4.32;;
23678;SDS011;12016;51.668;6.874;2022-08-19T16:16:48;7.85;;;6.10;;
23678;SDS011;12016;51.668;6.874;2022-08-19T16:22:50;6.85;;;5.20;;
23678;SDS011;12016;51.668;6.874;2022-08-19T16:28:53;6.85;;;5.43;;
23678;SDS011;12016;51.668;6.874;2022-08-19T16:34:56;9.88;;;6.30;;
23678;SDS011;12016;51.668;6.874;2022-08-19T16:41:00;6.80;;;5.72;;
23678;SDS011;12016;51.668;6.874;2022-08-19T16:47:02;6.28;;;4.93;;
23678;SDS011;12016;51.668;6.874;2022-08-19T16:53:05;6.95;;;5.07;;
23678;SDS011;12016;51.668;6.874;2022-08-19T16:59:08;6.63;;;5.35;;
23678;SDS011;12016;51.668;6.874;2022-08-19T17:05:10;5.70;;;5.15;;
23678;SDS011;12016;51.668;6.874;2022-08-19T17:11:12;7.45;;;5.50;;
23678;SDS011;12016;51.668;6.874;2022-08-19T17:17:18;6.07;;;5.20;;
23678;SDS011;12016;51.668;6.874;2022-08-19T17:23:20;7.30;;;6.03;;
23678;SDS011;12016;51.668;6.874;2022-08-19T17:29:22;6.53;;;5.68;;
23678;SDS011;12016;51.668;6.874;2022-08-19T17:35:24;6.60;;;5.88;;
23678;SDS011;12016;51.668;6.874;2022-08-19T17:41:28;7.70;;;5.63;;
23678;SDS011;12016;51.668;6.874;2022-08-19T17:47:30;6.82;;;6.07;;
23678;SDS011;12016;51.668;6.874;2022-08-19T17:53:32;7.85;;;5.70;;
23678;SDS011;12016;51.668;6.874;2022-08-19T17:59:34;8.88;;;7.78;;
23678;SDS011;12016;51.668;6.874;2022-08-19T18:05:40;10.40;;;8.60;;
23678;SDS011;12016;51.668;6.874;2022-08-19T18:11:43;10.38;;;9.23;;
23678;SDS011;12016;51.668;6.874;2022-08-19T18:17:45;14.05;;;9.30;;
23678;SDS011;12016;51.668;6.874;2022-08-19T18:23:47;11.40;;;9.13;;
23678;SDS011;12016;51.668;6.874;2022-08-19T18:29:50;12.40;;;9.20;;
23678;SDS011;12016;51.668;6.874;2022-08-19T18:35:52;11.20;;;8.75;;
23678;SDS011;12016;51.668;6.874;2022-08-19T18:41:54;11.35;;;8.88;;
23678;SDS011;12016;51.668;6.874;2022-08-19T18:48:15;10.30;;;7.57;;
23678;SDS011;12016;51.668;6.874;2022-08-19T18:54:35;9.68;;;7.13;;
23678;SDS011;12016;51.668;6.874;2022-08-19T19:00:37;9.88;;;7.57;;
23678;SDS011;12016;51.668;6.874;2022-08-19T19:06:41;8.18;;;6.88;;
23678;SDS011;12016;51.668;6.874;2022-08-19T19:12:44;7.63;;;6.63;;
23678;SDS011;12016;51.668;6.874;2022-08-19T19:18:46;7.63;;;6.13;;
23678;SDS011;12016;51.668;6.874;2022-08-19T19:24:50;7.55;;;6.63;;
23678;SDS011;12016;51.668;6.874;2022-08-19T19:30:56;7.70;;;6.15;;
23678;SDS011;12016;51.668;6.874;2022-08-19T19:36:59;7.22;;;6.28;;
23678;SDS011;12016;51.668;6.874;2022-08-19T19:43:01;7.25;;;6.45;;
23678;SDS011;12016;51.668;6.874;2022-08-19T19:49:05;7.57;;;6.53;;
23678;SDS011;12016;51.668;6.874;2022-08-19T19:55:08;6.38;;;5.55;;
23678;SDS011;12016;51.668;6.874;2022-08-19T20:01:16;7.13;;;5.47;;
23678;SDS011;12016;51.668;6.874;2022-08-19T20:07:18;7.70;;;5.43;;
23678;SDS011;12016;51.668;6.874;2022-08-19T20:13:40;6.00;;;5.40;;
23678;SDS011;12016;51.668;6.874;2022-08-19T20:19:42;5.80;;;5.00;;
23678;SDS011;12016;51.668;6.874;2022-08-19T20:25:45;7.55;;;5.95;;
23678;SDS011;12016;51.668;6.874;2022-08-19T20:31:47;7.03;;;5.82;;
23678;SDS011;12016;51.668;6.874;2022-08-19T20:37:49;6.68;;;5.68;;
23678;SDS011;12016;51.668;6.874;2022-08-19T20:43:56;6.93;;;6.22;;
23678;SDS011;12016;51.668;6.874;2022-08-19T20:50:03;6.72;;;5.65;;
23678;SDS011;12016;51.668;6.874;2022-08-19T20:56:06;6.65;;;5.95;;
23678;SDS011;12016;51.668;6.874;2022-08-19T21:02:08;7.22;;;5.55;;
23678;SDS011;12016;51.668;6.874;2022-08-19T21:08:12;6.70;;;5.32;;
23678;SDS011;12016;51.668;6.874;2022-08-19T21:14:15;5.93;;;5.32;;
23678;SDS011;12016;51.668;6.874;2022-08-19T21:20:17;7.82;;;5.03;;
23678;SDS011;12016;51.668;6.874;2022-08-19T21:26:20;7.05;;;5.55;;
23678;SDS011;12016;51.668;6.874;2022-08-19T21:32:23;7.60;;;6.53;;
23678;SDS011;12016;51.668;6.874;2022-08-19T21:38:25;6.57;;;5.85;;
23678;SDS011;12016;51.668;6.874;2022-08-19T21:44:27;7.55;;;5.70;;
23678;SDS011;12016;51.668;6.874;2022-08-19T21:50:30;6.50;;;5.70;;
23678;SDS011;12016;51.668;6.874;2022-08-19T21:56:33;7.78;;;6.70;;
23678;SDS011;12016;51.668;6.874;2022-08-19T22:02:37;7.88;;;6.47;;
23678;SDS011;12016;51.668;6.874;2022-08-19T22:08:39;8.98;;;7.43;;
23678;SDS011;12016;51.668;6.874;2022-08-19T22:14:42;9.73;;;8.13;;
23678;SDS011;12016;51.668;6.874;2022-08-19T22:20:45;9.82;;;7.95;;
23678;SDS011;12016;51.668;6.874;2022-08-19T22:26:48;11.73;;;8.18;;
23678;SDS011;12016;51.668;6.874;2022-08-19T22:32:53;11.93;;;7.85;;
23678;SDS011;12016;51.668;6.874;2022-08-19T22:38:57;12.93;;;7.80;;
23678;SDS011;12016;51.668;6.874;2022-08-19T22:45:00;13.43;;;9.73;;
23678;SDS011;12016;51.668;6.874;2022-08-19T22:51:02;9.60;;;8.23;;
23678;SDS011;12016;51.668;6.874;2022-08-19T22:57:22;9.27;;;8.10;;
23678;SDS011;12016;51.668;6.874;2022-08-19T23:03:26;10.98;;;8.80;;
23678;SDS011;12016;51.668;6.874;2022-08-19T23:09:29;11.35;;;8.57;;
23678;SDS011;12016;51.668;6.874;2022-08-19T23:15:31;11.18;;;8.82;;
23678;SDS011;12016;51.668;6.874;2022-08-19T23:21:34;10.18;;;8.80;;
23678;SDS011;12016;51.668;6.874;2022-08-19T23:27:36;11.98;;;9.63;;
23678;SDS011;12016;51.668;6.874;2022-08-19T23:33:57;10.95;;;8.90;;
23678;SDS011;12016;51.668;6.874;2022-08-19T23:40:00;10.60;;;9.10;;
23678;SDS011;12016;51.668;6.874;2022-08-19T23:46:04;10.23;;;8.95;;
23678;SDS011;12016;51.668;6.874;2022-08-19T23:52:07;10.25;;;8.90;;
23678;SDS011;12016;51.668;6.874;2022-08-19T23:58:10;10.00;;;8.32;;
